Terminal Aerodrome Forecast
Issued by NWS

Home | Current Version | Previous Version | Text Only | Print | Product List | Glossary On
Versions: 1 2 3 4 5 6 7 8 9 10 11 12 13 14 15 16
000
FTPA31 PHFO 271120
TAFHMK
TAF
PHMK 271120Z 2712/2812 04009G15KT P6SM FEW020 SCT035
     FM272000 04015G24KT P6SM FEW025 SCT040
     FM280500 04010G15KT P6SM FEW025 FEW040=

USA.gov is the U.S. government's official web portal to all federal, state and local government web resources and services.